sensor_id;sensor_type;location;lat;lon;timestamp;P1;durP1;ratioP1;P2;durP2;ratioP2
46322;SDS011;32044;52.386;13.278;2022-11-30T00:02:14;111.22;;;55.03;;
46322;SDS011;32044;52.386;13.278;2022-11-30T00:04:40;106.20;;;55.72;;
46322;SDS011;32044;52.386;13.278;2022-11-30T00:07:05;108.75;;;55.05;;
46322;SDS011;32044;52.386;13.278;2022-11-30T00:09:30;107.43;;;54.17;;
46322;SDS011;32044;52.386;13.278;2022-11-30T00:11:56;106.85;;;54.70;;
46322;SDS011;32044;52.386;13.278;2022-11-30T00:14:21;111.45;;;57.42;;
46322;SDS011;32044;52.386;13.278;2022-11-30T00:16:46;106.47;;;56.65;;
46322;SDS011;32044;52.386;13.278;2022-11-30T00:19:11;106.43;;;55.63;;
46322;SDS011;32044;52.386;13.278;2022-11-30T00:21:37;113.70;;;56.65;;
46322;SDS011;32044;52.386;13.278;2022-11-30T00:24:03;113.63;;;56.53;;
46322;SDS011;32044;52.386;13.278;2022-11-30T00:26:29;117.47;;;59.42;;
46322;SDS011;32044;52.386;13.278;2022-11-30T00:28:54;101.68;;;55.15;;
46322;SDS011;32044;52.386;13.278;2022-11-30T00:31:19;104.65;;;55.13;;
46322;SDS011;32044;52.386;13.278;2022-11-30T00:33:45;109.60;;;55.28;;
46322;SDS011;32044;52.386;13.278;2022-11-30T00:36:11;117.90;;;58.00;;
46322;SDS011;32044;52.386;13.278;2022-11-30T00:38:38;105.78;;;56.60;;
46322;SDS011;32044;52.386;13.278;2022-11-30T00:41:03;110.68;;;56.63;;
46322;SDS011;32044;52.386;13.278;2022-11-30T00:43:28;111.50;;;56.70;;
46322;SDS011;32044;52.386;13.278;2022-11-30T00:45:54;110.90;;;58.72;;
46322;SDS011;32044;52.386;13.278;2022-11-30T00:48:19;111.03;;;55.30;;
46322;SDS011;32044;52.386;13.278;2022-11-30T00:50:44;108.07;;;55.03;;
46322;SDS011;32044;52.386;13.278;2022-11-30T00:53:12;120.75;;;60.40;;
46322;SDS011;32044;52.386;13.278;2022-11-30T00:55:37;114.05;;;56.88;;
46322;SDS011;32044;52.386;13.278;2022-11-30T00:58:02;110.45;;;56.45;;
46322;SDS011;32044;52.386;13.278;2022-11-30T01:00:28;104.65;;;55.65;;
46322;SDS011;32044;52.386;13.278;2022-11-30T01:02:53;114.18;;;56.80;;
46322;SDS011;32044;52.386;13.278;2022-11-30T01:05:19;108.30;;;54.72;;
46322;SDS011;32044;52.386;13.278;2022-11-30T01:07:45;104.70;;;55.38;;
46322;SDS011;32044;52.386;13.278;2022-11-30T01:10:10;118.50;;;58.72;;
46322;SDS011;32044;52.386;13.278;2022-11-30T01:12:35;115.20;;;57.75;;
46322;SDS011;32044;52.386;13.278;2022-11-30T01:15:00;100.28;;;53.72;;
46322;SDS011;32044;52.386;13.278;2022-11-30T01:17:26;106.50;;;54.25;;
46322;SDS011;32044;52.386;13.278;2022-11-30T01:19:51;111.43;;;58.30;;
46322;SDS011;32044;52.386;13.278;2022-11-30T01:22:16;115.75;;;59.05;;
46322;SDS011;32044;52.386;13.278;2022-11-30T01:24:41;111.70;;;58.53;;
46322;SDS011;32044;52.386;13.278;2022-11-30T01:27:07;110.78;;;56.40;;
46322;SDS011;32044;52.386;13.278;2022-11-30T01:29:32;111.05;;;55.58;;
46322;SDS011;32044;52.386;13.278;2022-11-30T01:31:57;111.68;;;56.72;;
46322;SDS011;32044;52.386;13.278;2022-11-30T01:34:22;107.75;;;54.72;;
46322;SDS011;32044;52.386;13.278;2022-11-30T01:36:48;112.68;;;60.67;;
46322;SDS011;32044;52.386;13.278;2022-11-30T01:39:13;103.40;;;55.45;;
46322;SDS011;32044;52.386;13.278;2022-11-30T01:41:38;108.60;;;55.38;;
46322;SDS011;32044;52.386;13.278;2022-11-30T01:46:31;108.68;;;55.72;;
46322;SDS011;32044;52.386;13.278;2022-11-30T01:51:50;104.22;;;56.85;;
46322;SDS011;32044;52.386;13.278;2022-11-30T01:54:19;110.72;;;57.35;;
46322;SDS011;32044;52.386;13.278;2022-11-30T01:56:51;111.13;;;57.13;;
46322;SDS011;32044;52.386;13.278;2022-11-30T01:59:18;108.82;;;55.47;;
46322;SDS011;32044;52.386;13.278;2022-11-30T02:01:44;114.15;;;56.92;;
46322;SDS011;32044;52.386;13.278;2022-11-30T02:04:12;98.70;;;54.20;;
46322;SDS011;32044;52.386;13.278;2022-11-30T02:06:43;109.45;;;54.97;;
46322;SDS011;32044;52.386;13.278;2022-11-30T02:09:08;116.43;;;55.60;;
46322;SDS011;32044;52.386;13.278;2022-11-30T02:11:34;102.35;;;55.10;;
46322;SDS011;32044;52.386;13.278;2022-11-30T02:14:05;109.97;;;56.80;;
46322;SDS011;32044;52.386;13.278;2022-11-30T02:16:57;106.90;;;56.15;;
46322;SDS011;32044;52.386;13.278;2022-11-30T02:25:09;107.15;;;54.05;;
46322;SDS011;32044;52.386;13.278;2022-11-30T02:30:18;114.93;;;56.88;;
46322;SDS011;32044;52.386;13.278;2022-11-30T02:32:56;101.25;;;54.72;;
46322;SDS011;32044;52.386;13.278;2022-11-30T02:35:26;101.55;;;54.65;;
46322;SDS011;32044;52.386;13.278;2022-11-30T02:37:53;110.20;;;55.83;;
46322;SDS011;32044;52.386;13.278;2022-11-30T02:40:20;106.43;;;56.15;;
46322;SDS011;32044;52.386;13.278;2022-11-30T02:42:46;106.90;;;55.63;;
46322;SDS011;32044;52.386;13.278;2022-11-30T02:45:12;108.50;;;56.92;;
46322;SDS011;32044;52.386;13.278;2022-11-30T02:47:49;105.95;;;55.60;;
46322;SDS011;32044;52.386;13.278;2022-11-30T02:53:05;111.35;;;56.13;;
46322;SDS011;32044;52.386;13.278;2022-11-30T02:55:32;109.55;;;55.60;;
46322;SDS011;32044;52.386;13.278;2022-11-30T02:57:57;107.50;;;54.55;;
46322;SDS011;32044;52.386;13.278;2022-11-30T03:00:23;112.80;;;59.38;;
46322;SDS011;32044;52.386;13.278;2022-11-30T03:02:48;110.72;;;55.30;;
46322;SDS011;32044;52.386;13.278;2022-11-30T03:05:14;105.75;;;56.00;;
46322;SDS011;32044;52.386;13.278;2022-11-30T03:07:39;110.90;;;56.67;;
46322;SDS011;32044;52.386;13.278;2022-11-30T03:10:04;106.35;;;57.42;;
46322;SDS011;32044;52.386;13.278;2022-11-30T03:12:30;115.80;;;59.30;;
46322;SDS011;32044;52.386;13.278;2022-11-30T03:14:56;115.53;;;59.17;;
46322;SDS011;32044;52.386;13.278;2022-11-30T03:17:21;114.68;;;59.13;;
46322;SDS011;32044;52.386;13.278;2022-11-30T03:19:46;112.80;;;56.70;;
46322;SDS011;32044;52.386;13.278;2022-11-30T03:22:11;107.60;;;58.28;;
46322;SDS011;32044;52.386;13.278;2022-11-30T03:24:37;115.25;;;57.22;;
46322;SDS011;32044;52.386;13.278;2022-11-30T03:27:02;111.85;;;58.10;;
46322;SDS011;32044;52.386;13.278;2022-11-30T03:29:28;106.03;;;58.50;;
46322;SDS011;32044;52.386;13.278;2022-11-30T03:31:53;102.35;;;54.00;;
46322;SDS011;32044;52.386;13.278;2022-11-30T03:34:18;111.05;;;56.20;;
46322;SDS011;32044;52.386;13.278;2022-11-30T03:36:44;108.75;;;56.30;;
46322;SDS011;32044;52.386;13.278;2022-11-30T03:39:09;108.60;;;56.20;;
46322;SDS011;32044;52.386;13.278;2022-11-30T03:41:34;110.85;;;56.28;;
46322;SDS011;32044;52.386;13.278;2022-11-30T03:44:00;109.95;;;57.63;;
46322;SDS011;32044;52.386;13.278;2022-11-30T03:46:25;112.20;;;56.47;;
46322;SDS011;32044;52.386;13.278;2022-11-30T03:48:51;110.35;;;56.55;;
46322;SDS011;32044;52.386;13.278;2022-11-30T03:51:17;113.47;;;56.67;;
46322;SDS011;32044;52.386;13.278;2022-11-30T03:53:42;109.65;;;56.92;;
46322;SDS011;32044;52.386;13.278;2022-11-30T03:56:08;103.78;;;54.38;;
46322;SDS011;32044;52.386;13.278;2022-11-30T03:58:34;109.53;;;57.72;;
46322;SDS011;32044;52.386;13.278;2022-11-30T04:03:38;113.55;;;57.25;;
46322;SDS011;32044;52.386;13.278;2022-11-30T04:06:04;119.03;;;58.47;;
46322;SDS011;32044;52.386;13.278;2022-11-30T04:08:30;110.97;;;58.80;;
46322;SDS011;32044;52.386;13.278;2022-11-30T04:10:56;103.00;;;55.40;;
46322;SDS011;32044;52.386;13.278;2022-11-30T04:13:22;113.70;;;55.90;;
46322;SDS011;32044;52.386;13.278;2022-11-30T04:15:48;105.63;;;56.05;;
46322;SDS011;32044;52.386;13.278;2022-11-30T04:18:14;114.20;;;60.03;;
46322;SDS011;32044;52.386;13.278;2022-11-30T04:20:40;106.78;;;55.97;;
46322;SDS011;32044;52.386;13.278;2022-11-30T04:23:05;116.93;;;58.47;;
46322;SDS011;32044;52.386;13.278;2022-11-30T04:25:30;110.22;;;56.50;;
46322;SDS011;32044;52.386;13.278;2022-11-30T04:27:56;109.20;;;58.42;;
46322;SDS011;32044;52.386;13.278;2022-11-30T04:30:21;111.65;;;57.72;;
46322;SDS011;32044;52.386;13.278;2022-11-30T04:32:46;107.93;;;58.13;;
46322;SDS011;32044;52.386;13.278;2022-11-30T04:35:12;109.13;;;57.33;;
46322;SDS011;32044;52.386;13.278;2022-11-30T04:37:37;107.57;;;55.90;;
46322;SDS011;32044;52.386;13.278;2022-11-30T04:40:02;112.88;;;57.17;;
46322;SDS011;32044;52.386;13.278;2022-11-30T04:42:28;107.15;;;55.80;;
46322;SDS011;32044;52.386;13.278;2022-11-30T04:44:53;111.60;;;58.17;;
46322;SDS011;32044;52.386;13.278;2022-11-30T04:47:19;99.82;;;54.78;;
46322;SDS011;32044;52.386;13.278;2022-11-30T04:49:44;110.97;;;55.42;;
46322;SDS011;32044;52.386;13.278;2022-11-30T04:52:09;109.30;;;56.67;;
46322;SDS011;32044;52.386;13.278;2022-11-30T04:54:34;114.13;;;56.75;;
46322;SDS011;32044;52.386;13.278;2022-11-30T04:57:00;106.05;;;55.83;;
46322;SDS011;32044;52.386;13.278;2022-11-30T04:59:25;107.72;;;56.55;;
46322;SDS011;32044;52.386;13.278;2022-11-30T05:01:50;112.15;;;56.85;;
46322;SDS011;32044;52.386;13.278;2022-11-30T05:04:15;115.28;;;60.08;;
46322;SDS011;32044;52.386;13.278;2022-11-30T05:06:41;109.38;;;55.63;;
46322;SDS011;32044;52.386;13.278;2022-11-30T05:09:06;109.30;;;56.42;;
46322;SDS011;32044;52.386;13.278;2022-11-30T05:11:31;112.72;;;56.78;;
46322;SDS011;32044;52.386;13.278;2022-11-30T05:13:56;108.75;;;56.53;;
46322;SDS011;32044;52.386;13.278;2022-11-30T05:16:22;109.05;;;56.88;;
46322;SDS011;32044;52.386;13.278;2022-11-30T05:18:47;105.18;;;56.40;;
46322;SDS011;32044;52.386;13.278;2022-11-30T05:21:12;112.45;;;58.38;;
46322;SDS011;32044;52.386;13.278;2022-11-30T05:23:38;116.60;;;57.88;;
46322;SDS011;32044;52.386;13.278;2022-11-30T05:26:03;110.13;;;56.65;;
46322;SDS011;32044;52.386;13.278;2022-11-30T05:28:28;118.65;;;57.83;;
46322;SDS011;32044;52.386;13.278;2022-11-30T05:30:54;112.55;;;55.80;;
46322;SDS011;32044;52.386;13.278;2022-11-30T05:33:19;103.45;;;56.03;;
46322;SDS011;32044;52.386;13.278;2022-11-30T05:35:44;112.43;;;56.60;;
46322;SDS011;32044;52.386;13.278;2022-11-30T05:38:10;111.38;;;57.88;;
46322;SDS011;32044;52.386;13.278;2022-11-30T05:40:35;109.85;;;55.67;;
46322;SDS011;32044;52.386;13.278;2022-11-30T05:43:01;107.05;;;56.90;;
46322;SDS011;32044;52.386;13.278;2022-11-30T05:45:27;102.90;;;54.88;;
46322;SDS011;32044;52.386;13.278;2022-11-30T05:47:52;109.97;;;57.30;;
46322;SDS011;32044;52.386;13.278;2022-11-30T05:50:18;109.93;;;56.83;;
46322;SDS011;32044;52.386;13.278;2022-11-30T05:52:43;108.80;;;56.13;;
46322;SDS011;32044;52.386;13.278;2022-11-30T05:55:09;113.60;;;55.95;;
46322;SDS011;32044;52.386;13.278;2022-11-30T05:57:35;115.72;;;59.15;;
46322;SDS011;32044;52.386;13.278;2022-11-30T06:00:02;120.32;;;62.55;;
46322;SDS011;32044;52.386;13.278;2022-11-30T06:02:28;112.43;;;58.42;;
46322;SDS011;32044;52.386;13.278;2022-11-30T06:04:53;110.43;;;57.65;;
46322;SDS011;32044;52.386;13.278;2022-11-30T06:07:18;118.30;;;59.55;;
46322;SDS011;32044;52.386;13.278;2022-11-30T06:09:44;111.40;;;59.05;;
46322;SDS011;32044;52.386;13.278;2022-11-30T06:12:09;108.93;;;55.60;;
46322;SDS011;32044;52.386;13.278;2022-11-30T06:14:34;107.28;;;56.15;;
46322;SDS011;32044;52.386;13.278;2022-11-30T06:16:59;108.97;;;56.63;;
46322;SDS011;32044;52.386;13.278;2022-11-30T06:19:25;109.57;;;57.63;;
46322;SDS011;32044;52.386;13.278;2022-11-30T06:21:50;115.63;;;57.95;;
46322;SDS011;32044;52.386;13.278;2022-11-30T06:24:15;107.60;;;56.65;;
46322;SDS011;32044;52.386;13.278;2022-11-30T06:26:40;109.93;;;56.25;;
46322;SDS011;32044;52.386;13.278;2022-11-30T06:29:06;109.45;;;57.78;;
46322;SDS011;32044;52.386;13.278;2022-11-30T06:31:32;108.55;;;57.15;;
46322;SDS011;32044;52.386;13.278;2022-11-30T06:33:58;105.88;;;57.60;;
46322;SDS011;32044;52.386;13.278;2022-11-30T06:36:23;112.18;;;56.50;;
46322;SDS011;32044;52.386;13.278;2022-11-30T06:38:49;109.20;;;57.95;;
46322;SDS011;32044;52.386;13.278;2022-11-30T06:41:14;97.82;;;54.65;;
46322;SDS011;32044;52.386;13.278;2022-11-30T06:43:40;105.43;;;55.17;;
46322;SDS011;32044;52.386;13.278;2022-11-30T06:46:05;100.90;;;52.97;;
46322;SDS011;32044;52.386;13.278;2022-11-30T06:48:31;108.97;;;55.92;;
46322;SDS011;32044;52.386;13.278;2022-11-30T06:50:56;102.07;;;53.90;;
46322;SDS011;32044;52.386;13.278;2022-11-30T06:53:22;100.82;;;54.83;;
46322;SDS011;32044;52.386;13.278;2022-11-30T06:55:48;107.95;;;55.72;;
46322;SDS011;32044;52.386;13.278;2022-11-30T06:58:13;105.25;;;55.28;;
46322;SDS011;32044;52.386;13.278;2022-11-30T07:00:38;101.55;;;54.35;;
46322;SDS011;32044;52.386;13.278;2022-11-30T07:03:04;102.20;;;54.45;;
46322;SDS011;32044;52.386;13.278;2022-11-30T07:05:30;100.90;;;52.70;;
46322;SDS011;32044;52.386;13.278;2022-11-30T07:07:57;100.25;;;53.63;;
46322;SDS011;32044;52.386;13.278;2022-11-30T07:10:23;109.03;;;55.22;;
46322;SDS011;32044;52.386;13.278;2022-11-30T07:12:48;94.95;;;53.35;;
46322;SDS011;32044;52.386;13.278;2022-11-30T07:15:14;104.68;;;54.33;;
46322;SDS011;32044;52.386;13.278;2022-11-30T07:17:39;106.35;;;55.67;;
46322;SDS011;32044;52.386;13.278;2022-11-30T07:20:05;102.25;;;52.70;;
46322;SDS011;32044;52.386;13.278;2022-11-30T07:22:30;104.45;;;55.38;;
46322;SDS011;32044;52.386;13.278;2022-11-30T07:24:56;97.50;;;51.78;;
46322;SDS011;32044;52.386;13.278;2022-11-30T07:27:39;110.72;;;55.95;;
46322;SDS011;32044;52.386;13.278;2022-11-30T07:30:05;99.10;;;51.97;;
46322;SDS011;32044;52.386;13.278;2022-11-30T07:32:31;103.78;;;53.47;;
46322;SDS011;32044;52.386;13.278;2022-11-30T07:34:56;100.22;;;53.30;;
46322;SDS011;32044;52.386;13.278;2022-11-30T07:37:21;102.82;;;54.75;;
46322;SDS011;32044;52.386;13.278;2022-11-30T07:39:47;99.45;;;52.70;;
46322;SDS011;32044;52.386;13.278;2022-11-30T07:42:12;100.00;;;54.22;;
46322;SDS011;32044;52.386;13.278;2022-11-30T07:44:37;102.72;;;52.95;;
46322;SDS011;32044;52.386;13.278;2022-11-30T07:47:02;104.28;;;55.25;;
46322;SDS011;32044;52.386;13.278;2022-11-30T07:49:28;102.72;;;54.58;;
46322;SDS011;32044;52.386;13.278;2022-11-30T07:51:53;105.07;;;53.80;;
46322;SDS011;32044;52.386;13.278;2022-11-30T07:54:18;93.80;;;49.75;;
46322;SDS011;32044;52.386;13.278;2022-11-30T07:56:44;96.78;;;52.40;;
46322;SDS011;32044;52.386;13.278;2022-11-30T07:59:09;98.03;;;52.25;;
46322;SDS011;32044;52.386;13.278;2022-11-30T08:01:34;91.38;;;50.05;;
46322;SDS011;32044;52.386;13.278;2022-11-30T08:03:59;87.13;;;49.10;;
46322;SDS011;32044;52.386;13.278;2022-11-30T08:06:26;89.45;;;49.88;;
46322;SDS011;32044;52.386;13.278;2022-11-30T08:08:55;95.80;;;50.00;;
46322;SDS011;32044;52.386;13.278;2022-11-30T08:11:22;99.35;;;52.25;;
46322;SDS011;32044;52.386;13.278;2022-11-30T08:13:50;91.03;;;49.45;;
46322;SDS011;32044;52.386;13.278;2022-11-30T08:16:17;90.82;;;48.67;;
46322;SDS011;32044;52.386;13.278;2022-11-30T08:18:44;89.97;;;50.58;;
46322;SDS011;32044;52.386;13.278;2022-11-30T08:21:13;87.00;;;47.60;;
46322;SDS011;32044;52.386;13.278;2022-11-30T08:23:43;93.35;;;51.47;;
46322;SDS011;32044;52.386;13.278;2022-11-30T08:26:10;96.65;;;50.45;;
46322;SDS011;32044;52.386;13.278;2022-11-30T08:28:43;90.13;;;46.38;;
46322;SDS011;32044;52.386;13.278;2022-11-30T08:31:11;99.03;;;48.47;;
46322;SDS011;32044;52.386;13.278;2022-11-30T08:33:38;94.20;;;49.75;;
46322;SDS011;32044;52.386;13.278;2022-11-30T08:38:36;87.00;;;46.63;;
46322;SDS011;32044;52.386;13.278;2022-11-30T08:41:02;90.47;;;48.05;;
46322;SDS011;32044;52.386;13.278;2022-11-30T08:43:28;87.90;;;46.05;;
46322;SDS011;32044;52.386;13.278;2022-11-30T08:45:53;91.03;;;48.63;;
46322;SDS011;32044;52.386;13.278;2022-11-30T08:48:19;83.63;;;46.00;;
46322;SDS011;32044;52.386;13.278;2022-11-30T08:50:44;84.30;;;46.60;;
46322;SDS011;32044;52.386;13.278;2022-11-30T08:53:10;79.13;;;45.13;;
46322;SDS011;32044;52.386;13.278;2022-11-30T08:55:35;84.93;;;47.40;;
46322;SDS011;32044;52.386;13.278;2022-11-30T08:58:00;82.68;;;45.83;;
46322;SDS011;32044;52.386;13.278;2022-11-30T09:00:26;84.68;;;46.60;;
46322;SDS011;32044;52.386;13.278;2022-11-30T09:02:51;91.15;;;49.13;;
46322;SDS011;32044;52.386;13.278;2022-11-30T09:05:16;86.78;;;47.70;;
46322;SDS011;32044;52.386;13.278;2022-11-30T09:07:41;83.80;;;44.22;;
46322;SDS011;32044;52.386;13.278;2022-11-30T09:10:07;115.15;;;57.78;;
46322;SDS011;32044;52.386;13.278;2022-11-30T09:12:33;93.55;;;50.85;;
46322;SDS011;32044;52.386;13.278;2022-11-30T09:15:00;78.00;;;43.55;;
46322;SDS011;32044;52.386;13.278;2022-11-30T09:17:25;76.78;;;42.05;;
46322;SDS011;32044;52.386;13.278;2022-11-30T09:19:50;73.13;;;42.53;;
46322;SDS011;32044;52.386;13.278;2022-11-30T09:22:15;77.40;;;41.97;;
46322;SDS011;32044;52.386;13.278;2022-11-30T09:24:42;68.38;;;40.05;;
46322;SDS011;32044;52.386;13.278;2022-11-30T09:27:07;74.40;;;41.63;;
46322;SDS011;32044;52.386;13.278;2022-11-30T09:29:32;72.45;;;42.25;;
46322;SDS011;32044;52.386;13.278;2022-11-30T09:31:57;72.85;;;40.70;;
46322;SDS011;32044;52.386;13.278;2022-11-30T09:34:23;69.57;;;39.70;;
46322;SDS011;32044;52.386;13.278;2022-11-30T09:36:48;69.15;;;39.92;;
46322;SDS011;32044;52.386;13.278;2022-11-30T09:39:13;70.47;;;39.30;;
46322;SDS011;32044;52.386;13.278;2022-11-30T09:41:56;69.22;;;38.88;;
46322;SDS011;32044;52.386;13.278;2022-11-30T09:50:19;64.95;;;38.97;;
46322;SDS011;32044;52.386;13.278;2022-11-30T09:52:49;63.13;;;38.25;;
46322;SDS011;32044;52.386;13.278;2022-11-30T09:55:20;71.88;;;39.88;;
46322;SDS011;32044;52.386;13.278;2022-11-30T09:57:52;71.38;;;42.22;;
46322;SDS011;32044;52.386;13.278;2022-11-30T10:00:22;70.53;;;40.35;;
46322;SDS011;32044;52.386;13.278;2022-11-30T10:02:52;62.67;;;36.88;;
46322;SDS011;32044;52.386;13.278;2022-11-30T10:05:37;63.90;;;35.90;;
46322;SDS011;32044;52.386;13.278;2022-11-30T10:08:23;70.57;;;38.72;;
46322;SDS011;32044;52.386;13.278;2022-11-30T10:22:28;68.22;;;38.13;;
46322;SDS011;32044;52.386;13.278;2022-11-30T10:27:50;69.90;;;40.88;;
46322;SDS011;32044;52.386;13.278;2022-11-30T10:32:46;76.70;;;41.08;;
46322;SDS011;32044;52.386;13.278;2022-11-30T10:35:22;69.53;;;41.08;;
46322;SDS011;32044;52.386;13.278;2022-11-30T10:37:53;68.28;;;39.80;;
46322;SDS011;32044;52.386;13.278;2022-11-30T10:40:32;76.35;;;41.85;;
46322;SDS011;32044;52.386;13.278;2022-11-30T10:45:39;69.70;;;39.35;;
46322;SDS011;32044;52.386;13.278;2022-11-30T10:48:11;79.10;;;44.90;;
46322;SDS011;32044;52.386;13.278;2022-11-30T10:50:53;75.07;;;44.15;;
46322;SDS011;32044;52.386;13.278;2022-11-30T10:53:18;71.03;;;41.03;;
46322;SDS011;32044;52.386;13.278;2022-11-30T10:55:46;80.43;;;45.25;;
46322;SDS011;32044;52.386;13.278;2022-11-30T10:58:18;76.82;;;45.10;;
46322;SDS011;32044;52.386;13.278;2022-11-30T11:01:01;76.80;;;45.03;;
46322;SDS011;32044;52.386;13.278;2022-11-30T11:03:33;83.38;;;45.42;;
46322;SDS011;32044;52.386;13.278;2022-11-30T11:06:04;75.00;;;43.10;;
46322;SDS011;32044;52.386;13.278;2022-11-30T11:08:33;72.15;;;43.15;;
46322;SDS011;32044;52.386;13.278;2022-11-30T11:10:59;75.28;;;44.38;;
46322;SDS011;32044;52.386;13.278;2022-11-30T11:13:35;75.78;;;45.22;;
46322;SDS011;32044;52.386;13.278;2022-11-30T11:16:06;74.68;;;42.83;;
46322;SDS011;32044;52.386;13.278;2022-11-30T11:18:35;79.82;;;43.83;;
46322;SDS011;32044;52.386;13.278;2022-11-30T11:21:03;74.07;;;43.28;;
46322;SDS011;32044;52.386;13.278;2022-11-30T11:23:39;75.40;;;43.58;;
46322;SDS011;32044;52.386;13.278;2022-11-30T11:26:06;76.15;;;43.65;;
46322;SDS011;32044;52.386;13.278;2022-11-30T11:28:45;76.75;;;44.17;;
46322;SDS011;32044;52.386;13.278;2022-11-30T11:34:30;76.07;;;44.25;;
46322;SDS011;32044;52.386;13.278;2022-11-30T11:37:09;77.90;;;44.95;;
46322;SDS011;32044;52.386;13.278;2022-11-30T11:42:04;85.07;;;45.40;;
46322;SDS011;32044;52.386;13.278;2022-11-30T11:44:29;75.97;;;44.10;;
46322;SDS011;32044;52.386;13.278;2022-11-30T11:49:26;74.38;;;44.17;;
46322;SDS011;32044;52.386;13.278;2022-11-30T11:52:26;83.95;;;47.22;;
46322;SDS011;32044;52.386;13.278;2022-11-30T11:54:56;81.15;;;45.10;;
46322;SDS011;32044;52.386;13.278;2022-11-30T11:57:31;85.28;;;46.88;;
46322;SDS011;32044;52.386;13.278;2022-11-30T12:05:30;83.22;;;46.65;;
46322;SDS011;32044;52.386;13.278;2022-11-30T12:08:02;77.35;;;44.35;;
46322;SDS011;32044;52.386;13.278;2022-11-30T12:10:42;85.18;;;45.45;;
46322;SDS011;32044;52.386;13.278;2022-11-30T12:13:16;79.25;;;45.83;;
46322;SDS011;32044;52.386;13.278;2022-11-30T12:18:24;77.50;;;45.25;;
46322;SDS011;32044;52.386;13.278;2022-11-30T12:21:06;80.80;;;46.58;;
46322;SDS011;32044;52.386;13.278;2022-11-30T12:23:45;77.97;;;45.58;;
46322;SDS011;32044;52.386;13.278;2022-11-30T12:26:19;72.90;;;41.47;;
46322;SDS011;32044;52.386;13.278;2022-11-30T12:34:44;76.72;;;42.65;;
46322;SDS011;32044;52.386;13.278;2022-11-30T12:37:21;84.45;;;48.00;;
46322;SDS011;32044;52.386;13.278;2022-11-30T12:39:58;80.38;;;46.03;;
46322;SDS011;32044;52.386;13.278;2022-11-30T12:48:05;83.25;;;48.15;;
46322;SDS011;32044;52.386;13.278;2022-11-30T12:50:41;87.88;;;47.75;;
46322;SDS011;32044;52.386;13.278;2022-11-30T12:53:13;88.47;;;49.88;;
46322;SDS011;32044;52.386;13.278;2022-11-30T12:58:40;85.35;;;48.17;;
46322;SDS011;32044;52.386;13.278;2022-11-30T13:01:25;81.82;;;47.65;;
46322;SDS011;32044;52.386;13.278;2022-11-30T13:06:59;85.22;;;47.33;;
46322;SDS011;32044;52.386;13.278;2022-11-30T13:09:46;76.95;;;45.55;;
46322;SDS011;32044;52.386;13.278;2022-11-30T13:12:20;77.50;;;44.17;;
46322;SDS011;32044;52.386;13.278;2022-11-30T13:15:03;70.72;;;42.63;;
46322;SDS011;32044;52.386;13.278;2022-11-30T13:17:30;69.07;;;40.85;;
46322;SDS011;32044;52.386;13.278;2022-11-30T13:19:58;83.65;;;46.78;;
46322;SDS011;32044;52.386;13.278;2022-11-30T13:25:44;84.30;;;47.28;;
46322;SDS011;32044;52.386;13.278;2022-11-30T13:28:30;92.40;;;49.13;;
46322;SDS011;32044;52.386;13.278;2022-11-30T13:33:55;89.90;;;50.30;;
46322;SDS011;32044;52.386;13.278;2022-11-30T13:36:35;93.97;;;51.97;;
46322;SDS011;32044;52.386;13.278;2022-11-30T13:41:33;99.20;;;51.10;;
46322;SDS011;32044;52.386;13.278;2022-11-30T13:43:59;99.63;;;51.58;;
46322;SDS011;32044;52.386;13.278;2022-11-30T13:46:24;96.57;;;52.42;;
46322;SDS011;32044;52.386;13.278;2022-11-30T13:49:07;97.43;;;54.97;;
46322;SDS011;32044;52.386;13.278;2022-11-30T13:51:54;106.75;;;54.70;;
46322;SDS011;32044;52.386;13.278;2022-11-30T13:59:53;112.43;;;59.83;;
46322;SDS011;32044;52.386;13.278;2022-11-30T14:05:09;193.88;;;108.30;;
46322;SDS011;32044;52.386;13.278;2022-11-30T14:13:01;125.10;;;60.78;;
46322;SDS011;32044;52.386;13.278;2022-11-30T14:20:44;138.88;;;66.05;;
46322;SDS011;32044;52.386;13.278;2022-11-30T14:23:16;131.82;;;61.83;;
46322;SDS011;32044;52.386;13.278;2022-11-30T14:25:49;117.53;;;58.35;;
46322;SDS011;32044;52.386;13.278;2022-11-30T14:28:16;128.30;;;60.80;;
46322;SDS011;32044;52.386;13.278;2022-11-30T14:30:42;115.50;;;55.30;;
46322;SDS011;32044;52.386;13.278;2022-11-30T14:33:18;125.10;;;59.58;;
46322;SDS011;32044;52.386;13.278;2022-11-30T14:35:48;132.75;;;63.28;;
46322;SDS011;32044;52.386;13.278;2022-11-30T14:38:25;135.82;;;59.35;;
46322;SDS011;32044;52.386;13.278;2022-11-30T14:40:52;138.75;;;62.65;;
46322;SDS011;32044;52.386;13.278;2022-11-30T14:43:18;137.10;;;63.72;;
46322;SDS011;32044;52.386;13.278;2022-11-30T14:48:41;142.18;;;61.17;;
46322;SDS011;32044;52.386;13.278;2022-11-30T14:51:09;135.48;;;60.17;;
46322;SDS011;32044;52.386;13.278;2022-11-30T14:53:38;137.45;;;63.63;;
46322;SDS011;32044;52.386;13.278;2022-11-30T14:56:16;142.02;;;62.50;;
46322;SDS011;32044;52.386;13.278;2022-11-30T14:58:54;145.77;;;60.85;;
46322;SDS011;32044;52.386;13.278;2022-11-30T15:01:23;139.50;;;59.55;;
46322;SDS011;32044;52.386;13.278;2022-11-30T15:03:50;149.07;;;61.63;;
46322;SDS011;32044;52.386;13.278;2022-11-30T15:06:18;149.52;;;62.05;;
46322;SDS011;32044;52.386;13.278;2022-11-30T15:08:49;151.00;;;64.00;;
46322;SDS011;32044;52.386;13.278;2022-11-30T15:11:16;149.85;;;61.55;;
46322;SDS011;32044;52.386;13.278;2022-11-30T15:13:43;160.73;;;67.63;;
46322;SDS011;32044;52.386;13.278;2022-11-30T15:16:16;161.77;;;65.70;;
46322;SDS011;32044;52.386;13.278;2022-11-30T15:18:45;164.25;;;64.22;;
46322;SDS011;32044;52.386;13.278;2022-11-30T15:21:12;169.85;;;67.35;;
46322;SDS011;32044;52.386;13.278;2022-11-30T15:23:41;176.55;;;68.80;;
46322;SDS011;32044;52.386;13.278;2022-11-30T15:26:15;162.50;;;68.25;;
46322;SDS011;32044;52.386;13.278;2022-11-30T15:29:05;183.10;;;68.15;;
46322;SDS011;32044;52.386;13.278;2022-11-30T15:31:37;182.55;;;72.07;;
46322;SDS011;32044;52.386;13.278;2022-11-30T15:34:06;188.60;;;74.57;;
46322;SDS011;32044;52.386;13.278;2022-11-30T15:36:41;187.30;;;72.72;;
46322;SDS011;32044;52.386;13.278;2022-11-30T15:39:06;184.40;;;70.57;;
46322;SDS011;32044;52.386;13.278;2022-11-30T15:41:40;172.52;;;70.95;;
46322;SDS011;32044;52.386;13.278;2022-11-30T15:44:15;185.68;;;68.53;;
46322;SDS011;32044;52.386;13.278;2022-11-30T15:46:54;166.57;;;63.30;;
46322;SDS011;32044;52.386;13.278;2022-11-30T15:49:28;164.13;;;64.97;;
46322;SDS011;32044;52.386;13.278;2022-11-30T15:54:45;161.52;;;61.90;;
46322;SDS011;32044;52.386;13.278;2022-11-30T15:57:18;165.18;;;63.95;;
46322;SDS011;32044;52.386;13.278;2022-11-30T16:00:00;166.43;;;63.55;;
46322;SDS011;32044;52.386;13.278;2022-11-30T16:02:30;172.50;;;65.18;;